Time;durP1;ratioP1;P1;durP2;ratioP2;P2;SDS_P1;SDS_P2;PMS_P1;PMS_P2;Temp;Humidity;BMP_temperature;BMP_pressure;BME280_temperature;BME280_humidity;BME280_pressure;Samples;Min_cycle;Max_cycle;Signal;HPM_P1;HPM_P2
2023/04/25 00:00:31;;;;;;;9.63;4.50;;;;;;;1.10;58.59;94801.47;5004450;28;20340;-71
2023/04/25 00:02:57;;;;;;;4.55;3.13;;;;;;;0.94;58.79;94802.06;5003584;28;20087;-71
2023/04/25 00:05:23;;;;;;;8.10;3.60;;;;;;;1.19;57.93;94799.00;5003060;28;20131;-71
2023/04/25 00:07:49;;;;;;;6.57;2.85;;;;;;;0.84;58.81;94801.22;5004116;28;20497;-71
2023/04/25 00:10:15;;;;;;;11.68;3.47;;;;;;;0.65;59.61;94812.50;5002376;28;20132;-71
2023/04/25 00:12:41;;;;;;;5.05;2.97;;;;;;;0.44;60.09;94814.25;5001575;28;20095;-71
2023/04/25 00:15:07;;;;;;;11.35;3.97;;;;;;;0.74;59.54;94803.81;5003525;28;20091;-71
2023/04/25 00:17:32;;;;;;;8.90;3.80;;;;;;;0.59;59.96;94803.41;5004135;28;20724;-71
2023/04/25 00:19:58;;;;;;;6.18;3.33;;;;;;;0.81;58.89;94806.72;5003617;28;20444;-71
2023/04/25 00:22:23;;;;;;;10.43;3.67;;;;;;;0.91;58.96;94807.56;5003471;28;20581;-71
2023/04/25 00:24:48;;;;;;;7.57;3.40;;;;;;;0.72;59.80;94803.16;4996672;28;20081;-71
2023/04/25 00:27:14;;;;;;;5.90;3.15;;;;;;;0.64;60.12;94805.59;4992907;28;20055;-71
2023/04/25 00:29:39;;;;;;;12.75;3.90;;;;;;;0.93;59.03;94800.41;4997670;28;20063;-71
2023/04/25 00:32:05;;;;;;;6.28;2.95;;;;;;;0.68;59.66;94796.53;4995990;28;20475;-71
2023/04/25 00:34:30;;;;;;;6.85;3.63;;;;;;;0.86;59.23;94796.66;5001495;28;20065;-71
2023/04/25 00:36:56;;;;;;;8.10;3.70;;;;;;;1.11;58.63;94792.66;5006226;28;20096;-71
2023/04/25 00:39:22;;;;;;;6.55;3.88;;;;;;;0.88;58.18;94799.97;5013787;28;20095;-71
2023/04/25 00:41:47;;;;;;;6.75;3.13;;;;;;;0.60;59.81;94802.44;4993009;28;20532;-71
2023/04/25 00:44:13;;;;;;;16.98;4.30;;;;;;;0.59;59.69;94801.59;4992977;28;20076;-71
2023/04/25 00:46:39;;;;;;;14.20;4.40;;;;;;;0.70;59.01;94799.81;4986028;28;20054;-71
2023/04/25 00:49:04;;;;;;;7.90;3.80;;;;;;;0.62;59.38;94797.91;5006733;28;20074;-71
2023/04/25 00:51:30;;;;;;;8.02;3.53;;;;;;;0.26;60.60;94800.97;5010612;28;20429;-71
2023/04/25 00:53:56;;;;;;;14.00;4.82;;;;;;;0.45;59.83;94791.53;5003209;28;20086;-71
2023/04/25 00:56:21;;;;;;;8.05;3.10;;;;;;;0.58;59.41;94791.28;5002290;28;20208;-71
2023/04/25 00:58:46;;;;;;;8.60;3.90;;;;;;;0.28;60.41;94796.44;5000670;28;20295;-71
2023/04/25 01:01:12;;;;;;;12.07;5.30;;;;;;;0.17;61.43;94796.56;5000756;28;20110;-71
2023/04/25 01:03:40;;;;;;;6.90;3.60;;;;;;;0.30;61.02;94794.50;5001575;28;20064;-71
2023/04/25 01:06:07;;;;;;;8.93;3.53;;;;;;;0.72;59.86;94790.84;4983764;28;20056;-71
2023/04/25 01:08:33;;;;;;;9.75;4.15;;;;;;;0.97;58.75;94793.06;5001016;28;20086;-71
2023/04/25 01:10:58;;;;;;;11.48;4.40;;;;;;;1.01;58.36;94791.84;4985426;28;20078;-71
2023/04/25 01:13:24;;;;;;;9.15;3.83;;;;;;;0.67;59.52;94793.06;5001621;28;20086;-71
2023/04/25 01:15:49;;;;;;;5.90;3.03;;;;;;;0.27;60.85;94794.78;4999156;28;20522;-71
2023/04/25 01:18:14;;;;;;;7.47;3.17;;;;;;;0.26;61.34;94792.28;5000823;28;20072;-71
2023/04/25 01:20:40;;;;;;;8.18;3.63;;;;;;;0.17;61.68;94791.31;4983739;28;20081;-71
2023/04/25 01:23:05;;;;;;;7.25;3.45;;;;;;;0.45;60.60;94794.13;4984943;28;20045;-71
2023/04/25 01:25:31;;;;;;;9.13;4.13;;;;;;;0.52;60.21;94794.41;5000825;28;20085;-71
2023/04/25 01:27:57;;;;;;;8.32;4.05;;;;;;;0.53;60.31;94796.91;4983896;28;20480;-71
2023/04/25 01:30:23;;;;;;;8.80;3.88;;;;;;;0.23;61.04;94796.00;4984241;28;20456;-71
2023/04/25 01:32:48;;;;;;;12.75;5.63;;;;;;;0.14;61.04;94796.81;4999867;28;20103;-71
2023/04/25 01:35:14;;;;;;;8.10;3.38;;;;;;;-0.54;63.07;94803.41;4983845;28;20484;-71
2023/04/25 01:37:40;;;;;;;11.10;4.13;;;;;;;-0.22;62.13;94800.69;5001707;28;20100;-71
2023/04/25 01:40:06;;;;;;;8.30;3.85;;;;;;;-0.35;62.83;94797.44;5000876;28;20093;-71
2023/04/25 01:42:32;;;;;;;10.95;4.20;;;;;;;-0.21;62.31;94797.09;5001398;28;20067;-71
2023/04/25 01:44:58;;;;;;;9.40;4.07;;;;;;;-0.23;62.39;94791.16;5002432;28;20073;-71
2023/04/25 01:47:23;;;;;;;8.30;3.95;;;;;;;-0.59;63.41;94804.63;5001417;28;20082;-71
2023/04/25 01:49:49;;;;;;;14.98;4.50;;;;;;;-0.98;64.08;94807.75;5000523;28;20093;-71
2023/04/25 01:52:14;;;;;;;16.60;4.22;;;;;;;-0.69;63.31;94806.31;5000585;28;20084;-71
2023/04/25 01:54:43;;;;;;;9.52;4.13;;;;;;;-0.46;62.83;94807.03;5002397;28;20138;-71
2023/04/25 01:57:09;;;;;;;7.47;3.97;;;;;;;-0.57;62.62;94809.72;5000418;28;20593;-71
2023/04/25 01:59:35;;;;;;;9.00;4.72;;;;;;;-0.99;64.64;94813.09;4983633;28;20055;-71
2023/04/25 02:02:03;;;;;;;8.48;4.18;;;;;;;-0.59;63.10;94812.47;5001442;28;20459;-71
2023/04/25 02:04:29;;;;;;;13.02;4.60;;;;;;;-0.50;62.94;94812.66;5002389;28;20174;-71
2023/04/25 02:06:54;;;;;;;11.18;4.03;;;;;;;-0.91;63.82;94809.91;5001092;28;20446;-70
2023/04/25 02:09:20;;;;;;;11.95;4.28;;;;;;;-0.23;61.61;94799.00;5001013;28;20579;-71
2023/04/25 02:11:45;;;;;;;12.13;4.78;;;;;;;-0.27;61.82;94805.44;5001091;28;20107;-71
2023/04/25 02:14:11;;;;;;;11.70;4.53;;;;;;;-0.11;61.60;94802.38;4999278;28;20126;-71
2023/04/25 02:16:36;;;;;;;10.77;5.13;;;;;;;0.19;60.68;94799.84;4999013;28;20548;-71
2023/04/25 02:19:02;;;;;;;11.48;4.32;;;;;;;0.03;61.69;94803.81;5000811;28;20057;-71
2023/04/25 02:21:27;;;;;;;10.82;5.10;;;;;;;0.21;61.31;94806.63;5016999;28;20142;-71
2023/04/25 02:23:53;;;;;;;11.68;5.30;;;;;;;0.11;62.16;94802.31;5002727;28;20277;-71
2023/04/25 02:26:19;;;;;;;10.05;4.60;;;;;;;-0.24;62.80;94799.16;5003023;28;20069;-71
2023/04/25 02:28:44;;;;;;;16.92;5.50;;;;;;;-0.03;61.93;94798.28;5001753;28;20098;-71
2023/04/25 02:31:10;;;;;;;9.73;4.90;;;;;;;-0.21;62.88;94802.31;5002898;28;20067;-71
2023/04/25 02:33:35;;;;;;;12.75;5.05;;;;;;;-0.38;63.20;94795.91;5004418;28;20096;-71
2023/04/25 02:36:00;;;;;;;9.75;3.90;;;;;;;-0.21;63.11;94802.31;5006179;28;20099;-71
2023/04/25 02:38:26;;;;;;;10.77;5.45;;;;;;;0.14;61.72;94804.66;5006242;28;20077;-71
2023/04/25 02:40:51;;;;;;;10.98;5.00;;;;;;;0.07;62.32;94799.94;5005549;28;20121;-71
2023/04/25 02:43:17;;;;;;;6.47;3.75;;;;;;;0.11;62.63;94794.47;5006102;28;20095;-71
2023/04/25 02:45:42;;;;;;;13.48;5.90;;;;;;;-0.12;62.63;94802.50;5005794;28;20084;-71
2023/04/25 02:48:07;;;;;;;8.13;3.40;;;;;;;-0.19;62.87;94805.63;5004179;28;20098;-71
2023/04/25 02:50:33;;;;;;;13.05;5.07;;;;;;;-0.33;63.86;94800.75;5006390;28;20320;-71
2023/04/25 02:52:58;;;;;;;14.27;5.97;;;;;;;-1.15;66.50;94803.91;5005241;28;20121;-71
2023/04/25 02:55:26;;;;;;;10.60;4.93;;;;;;;-0.87;65.95;94804.31;5005945;28;20111;-70
2023/04/25 02:57:52;;;;;;;8.82;4.70;;;;;;;-0.99;66.74;94803.47;4987419;28;20101;-71
2023/04/25 03:00:17;;;;;;;15.00;5.53;;;;;;;-1.47;67.43;94810.78;5003744;28;20083;-70
2023/04/25 03:02:43;;;;;;;8.65;4.18;;;;;;;-0.83;65.83;94805.69;5003310;28;20064;-70
2023/04/25 03:05:08;;;;;;;13.23;5.05;;;;;;;-0.43;64.63;94809.38;5005254;28;20097;-71
2023/04/25 03:07:34;;;;;;;9.32;4.53;;;;;;;-0.58;64.77;94801.03;5005574;28;20079;-71
2023/04/25 03:10:00;;;;;;;10.45;4.80;;;;;;;-0.83;65.06;94794.41;5005245;28;20056;-71
2023/04/25 03:12:25;;;;;;;12.75;5.55;;;;;;;-0.73;66.09;94797.94;5005701;28;20088;-71
2023/04/25 03:14:50;;;;;;;12.63;4.15;;;;;;;-0.59;65.31;94799.38;5004119;28;20066;-71
2023/04/25 03:17:16;;;;;;;13.00;5.40;;;;;;;-1.47;67.48;94808.16;5003950;28;20414;-71
2023/04/25 03:19:41;;;;;;;14.75;5.15;;;;;;;-1.68;68.33;94802.88;5004336;28;20136;-71
2023/04/25 03:22:06;;;;;;;11.25;4.57;;;;;;;-1.40;67.40;94800.66;5005671;28;20072;-71
2023/04/25 03:24:32;;;;;;;15.63;4.65;;;;;;;-1.52;67.66;94793.81;5005049;28;20092;-71
2023/04/25 03:26:57;;;;;;;12.85;5.22;;;;;;;-1.50;67.63;94800.56;5005733;28;20644;-71
2023/04/25 03:29:25;;;;;;;8.30;3.63;;;;;;;-1.04;65.80;94797.81;5003652;28;20094;-71
2023/04/25 03:31:50;;;;;;;9.63;4.15;;;;;;;-0.96;66.02;94799.81;5004545;28;20096;-71
2023/04/25 03:34:16;;;;;;;13.13;4.72;;;;;;;-0.63;64.58;94794.53;5003218;28;20548;-71
2023/04/25 03:36:41;;;;;;;11.75;4.30;;;;;;;-0.73;64.83;94792.69;5003564;28;20087;-71
2023/04/25 03:39:07;;;;;;;6.88;4.15;;;;;;;-0.07;62.23;94793.28;5004790;28;20424;-71
2023/04/25 03:41:32;;;;;;;12.82;4.85;;;;;;;-0.19;62.27;94791.75;5003136;28;20088;-71
2023/04/25 03:43:57;;;;;;;15.98;4.18;;;;;;;-0.47;62.40;94797.50;5004441;28;20096;-71
2023/04/25 03:46:23;;;;;;;6.55;3.53;;;;;;;-0.50;62.08;94800.41;5004636;28;20062;-71
2023/04/25 03:48:48;;;;;;;7.70;3.60;;;;;;;-0.42;61.77;94797.13;5003253;28;20575;-71
2023/04/25 03:51:14;;;;;;;15.73;4.00;;;;;;;-0.88;63.23;94804.41;5005184;28;20352;-71
2023/04/25 03:53:39;;;;;;;7.57;4.13;;;;;;;-0.65;62.50;94799.88;5003383;28;20500;-71
2023/04/25 03:56:05;;;;;;;16.20;4.53;;;;;;;-0.47;62.00;94797.50;5004707;28;20105;-71
2023/04/25 03:58:31;;;;;;;8.10;3.83;;;;;;;-1.07;63.48;94805.91;5003888;28;20097;-71
2023/04/25 04:00:57;;;;;;;10.63;4.75;;;;;;;-0.87;63.67;94800.84;5003639;28;20094;-71
2023/04/25 04:03:22;;;;;;;7.25;3.90;;;;;;;-0.92;63.42;94801.22;5004634;28;20088;-71
2023/04/25 04:05:48;;;;;;;7.97;3.63;;;;;;;-0.79;63.14;94803.66;5003319;28;20087;-71
2023/04/25 04:08:13;;;;;;;6.18;3.55;;;;;;;-0.71;62.38;94806.44;4986299;28;20159;-71
2023/04/25 04:10:38;;;;;;;12.63;5.07;;;;;;;-0.57;62.58;94807.09;5004983;28;20477;-71
2023/04/25 04:13:04;;;;;;;12.20;4.57;;;;;;;-0.53;62.11;94811.13;5002648;28;20096;-71
2023/04/25 04:15:32;;;;;;;11.52;4.65;;;;;;;-0.68;63.23;94815.00;5004640;28;20071;-71
2023/04/25 04:18:02;;;;;;;7.85;4.13;;;;;;;-0.38;62.71;94808.16;4997176;28;20484;-71
2023/04/25 04:20:27;;;;;;;9.23;4.60;;;;;;;-0.55;63.46;94807.78;5006491;28;20089;-71
2023/04/25 04:22:53;;;;;;;7.38;3.65;;;;;;;-0.47;62.46;94813.19;5021339;28;20074;-71
2023/04/25 04:25:18;;;;;;;9.30;4.47;;;;;;;-0.25;62.20;94814.03;5004230;28;20089;-71
2023/04/25 04:27:44;;;;;;;11.60;4.85;;;;;;;-0.21;61.95;94804.94;4997148;28;20073;-71
2023/04/25 04:30:10;;;;;;;16.23;6.22;;;;;;;-0.15;62.42;94810.59;4998961;28;20443;-71
2023/04/25 04:32:37;;;;;;;12.13;5.35;;;;;;;0.15;61.15;94820.25;4992454;28;20102;-71
2023/04/25 04:35:04;;;;;;;11.77;5.32;;;;;;;0.02;61.97;94817.00;4989541;28;20058;-71
2023/04/25 04:37:29;;;;;;;13.63;5.70;;;;;;;0.08;61.61;94822.53;4993745;28;20099;-71
2023/04/25 04:39:55;;;;;;;6.88;4.03;;;;;;;0.06;61.76;94824.47;4991833;28;20599;-72
2023/04/25 04:42:21;;;;;;;14.73;6.10;;;;;;;0.09;61.66;94820.78;4995579;28;20446;-71
2023/04/25 04:44:46;;;;;;;11.00;4.30;;;;;;;-0.24;62.43;94823.50;4992421;28;20505;-71
2023/04/25 04:47:13;;;;;;;15.23;4.10;;;;;;;-0.09;61.48;94828.41;4993773;28;20171;-71
2023/04/25 04:49:39;;;;;;;9.27;4.95;;;;;;;-0.29;62.54;94828.31;4991539;28;20143;-71
2023/04/25 04:52:05;;;;;;;14.02;5.88;;;;;;;-0.29;63.20;94830.09;4991829;28;20085;-71
2023/04/25 04:54:30;;;;;;;10.25;5.05;;;;;;;-0.09;61.85;94844.97;4959592;28;20114;-71
2023/04/25 04:56:56;;;;;;;15.77;5.85;;;;;;;0.10;61.23;94845.16;4993787;28;20101;-71
2023/04/25 04:59:21;;;;;;;13.75;5.78;;;;;;;0.25;61.27;94848.25;4991551;28;20086;-71
2023/04/25 05:01:46;;;;;;;9.82;5.18;;;;;;;0.28;61.02;94848.78;4988578;28;20191;-71
2023/04/25 05:04:12;;;;;;;11.52;5.15;;;;;;;0.51;60.41;94853.84;4989513;28;20101;-71
2023/04/25 05:06:37;;;;;;;9.70;4.47;;;;;;;-0.19;62.09;94859.75;4991089;28;20060;-71
2023/04/25 05:09:03;;;;;;;12.55;6.15;;;;;;;0.20;61.70;94856.50;4994495;28;20088;-71
2023/04/25 05:11:29;;;;;;;12.90;4.38;;;;;;;0.25;61.47;94861.34;4978626;28;20081;-71
2023/04/25 05:13:54;;;;;;;12.02;6.00;;;;;;;0.54;60.75;94868.44;4993960;28;20542;-71
2023/04/25 05:16:20;;;;;;;15.60;6.07;;;;;;;0.31;61.67;94869.47;4994856;28;20092;-71
2023/04/25 05:18:46;;;;;;;9.77;5.68;;;;;;;0.28;61.54;94867.13;4992724;28;20178;-71
2023/04/25 05:21:11;;;;;;;10.30;4.95;;;;;;;0.14;62.31;94870.94;4984352;28;20134;-71
2023/04/25 05:23:37;;;;;;;15.35;5.60;;;;;;;-0.01;62.57;94870.47;4991599;28;20076;-71
2023/04/25 05:26:02;;;;;;;11.55;6.55;;;;;;;0.38;62.22;94874.22;4996713;28;20052;-71
2023/04/25 05:28:27;;;;;;;18.90;7.93;;;;;;;0.24;62.94;94875.41;4995591;28;20087;-71
2023/04/25 05:30:53;;;;;;;13.23;6.88;;;;;;;0.47;61.92;94873.41;4991874;28;20069;-71
2023/04/25 05:33:18;;;;;;;10.95;5.80;;;;;;;-0.16;63.55;94887.47;4994362;28;20092;-71
2023/04/25 05:35:44;;;;;;;9.75;5.13;;;;;;;-0.22;63.85;94881.78;4994050;28;20054;-71
2023/04/25 05:38:10;;;;;;;11.13;6.25;;;;;;;0.10;62.27;94889.66;4977538;28;20325;-71
2023/04/25 05:40:35;;;;;;;18.13;6.13;;;;;;;-0.41;63.84;94892.13;4996786;28;20564;-71
2023/04/25 05:43:00;;;;;;;14.43;7.07;;;;;;;0.18;63.04;94884.59;4987268;28;20086;-71
2023/04/25 05:45:26;;;;;;;12.90;6.55;;;;;;;0.55;61.88;94883.22;4997260;28;20093;-71
2023/04/25 05:47:51;;;;;;;11.35;6.43;;;;;;;0.48;62.16;94888.16;5001710;28;20421;-71
2023/04/25 05:50:17;;;;;;;10.32;4.95;;;;;;;0.08;62.99;94889.78;5002403;28;20065;-71
2023/04/25 05:52:42;;;;;;;11.90;4.63;;;;;;;0.03;63.11;94897.19;4997693;28;20091;-76
2023/04/25 05:55:08;;;;;;;10.10;5.07;;;;;;;0.30;62.97;94888.78;4996373;28;20096;-76
2023/04/25 05:57:33;;;;;;;8.18;4.68;;;;;;;0.42;62.31;94897.38;5001371;28;20619;-76
2023/04/25 05:59:59;;;;;;;13.77;5.40;;;;;;;0.76;61.20;94898.88;5001182;28;20126;-76
2023/04/25 06:02:25;;;;;;;9.60;5.30;;;;;;;0.68;61.28;94909.19;5003006;28;20062;-76
2023/04/25 06:04:50;;;;;;;13.50;5.68;;;;;;;0.59;61.78;94903.75;4999389;28;20099;-76
2023/04/25 06:07:16;;;;;;;13.25;5.72;;;;;;;0.99;59.86;94906.50;5000968;28;20056;-76
2023/04/25 06:09:42;;;;;;;8.50;4.68;;;;;;;0.03;62.82;94912.91;5008542;28;20095;-76
2023/04/25 06:12:07;;;;;;;8.57;3.90;;;;;;;0.48;61.88;94901.25;5006770;28;20084;-76
2023/04/25 06:14:33;;;;;;;9.18;5.47;;;;;;;0.39;61.82;94905.50;5006793;28;20065;-76
2023/04/25 06:16:59;;;;;;;15.55;6.00;;;;;;;0.77;61.03;94900.50;5004479;28;20566;-76
2023/04/25 06:19:24;;;;;;;11.07;6.60;;;;;;;0.42;62.05;94901.78;5009547;28;20049;-76
2023/04/25 06:21:50;;;;;;;7.93;5.05;;;;;;;0.26;62.93;94916.19;5008737;28;20172;-76
2023/04/25 06:24:15;;;;;;;11.98;5.88;;;;;;;0.74;61.83;94908.63;5005797;28;20089;-76
2023/04/25 06:26:41;;;;;;;11.60;5.15;;;;;;;0.08;64.11;94910.75;5006343;28;20067;-76
2023/04/25 06:29:09;;;;;;;11.85;5.18;;;;;;;0.24;63.39;94912.06;5008972;28;20112;-76
2023/04/25 06:31:35;;;;;;;8.80;4.60;;;;;;;0.33;62.35;94912.09;5005881;28;20167;-75
2023/04/25 06:34:00;;;;;;;10.68;4.78;;;;;;;0.38;63.24;94911.69;5007696;28;20076;-76
2023/04/25 06:36:27;;;;;;;8.23;4.43;;;;;;;0.61;61.85;94919.34;5008816;28;20085;-76
2023/04/25 06:38:52;;;;;;;10.82;5.00;;;;;;;-0.20;62.57;94919.09;5008360;28;20087;-76
2023/04/25 06:41:18;;;;;;;9.38;5.07;;;;;;;-0.47;64.66;94923.03;5005097;28;20591;-76
2023/04/25 06:43:44;;;;;;;10.38;5.50;;;;;;;-0.67;64.97;94927.31;5007359;28;20255;-76
2023/04/25 06:46:09;;;;;;;8.27;4.82;;;;;;;-0.70;66.92;94923.13;5008982;28;20624;-76
2023/04/25 06:48:35;;;;;;;11.85;5.57;;;;;;;-0.61;66.43;94926.78;5007896;28;20102;-75
2023/04/25 06:51:00;;;;;;;10.85;5.65;;;;;;;-0.42;65.93;94927.91;5004507;28;20098;-76
2023/04/25 06:53:26;;;;;;;9.15;5.25;;;;;;;-0.76;66.59;94930.66;5005744;28;20461;-76
2023/04/25 06:55:51;;;;;;;11.20;5.43;;;;;;;-0.55;64.11;94929.88;5001395;28;20091;-75
2023/04/25 06:58:17;;;;;;;11.45;5.70;;;;;;;-0.67;65.07;94935.16;5007658;28;20087;-76
2023/04/25 07:00:42;;;;;;;13.00;4.43;;;;;;;-0.55;65.41;94943.78;5006403;28;20455;-76
2023/04/25 07:03:08;;;;;;;12.13;5.95;;;;;;;-0.08;64.39;94942.59;5006631;28;20125;-75
2023/04/25 07:05:33;;;;;;;11.88;4.97;;;;;;;0.10;62.63;94950.69;5001488;28;20098;-75
2023/04/25 07:08:00;;;;;;;9.88;5.10;;;;;;;0.23;62.57;94939.19;5005980;28;20090;-76
2023/04/25 07:10:25;;;;;;;10.35;5.07;;;;;;;0.94;59.89;94937.50;5000875;28;20449;-76
2023/04/25 07:12:51;;;;;;;12.70;6.22;;;;;;;-0.03;61.78;94947.47;4983384;28;20133;-76
2023/04/25 07:15:16;;;;;;;9.48;5.05;;;;;;;0.09;61.51;94949.03;4999720;28;20603;-76
2023/04/25 07:17:42;;;;;;;12.60;6.07;;;;;;;-0.11;61.85;94943.69;4998127;28;20096;-76
2023/04/25 07:20:09;;;;;;;14.25;6.03;;;;;;;0.45;60.93;94953.91;4993804;28;20083;-76
2023/04/25 07:22:34;;;;;;;10.60;4.90;;;;;;;1.15;59.87;94949.69;5003436;28;20051;-76
2023/04/25 07:25:00;;;;;;;12.50;4.97;;;;;;;0.95;59.48;94950.50;5002569;28;20498;-76
2023/04/25 07:27:25;;;;;;;11.18;6.22;;;;;;;1.37;59.57;94954.69;5002147;28;20111;-76
2023/04/25 07:29:50;;;;;;;12.20;5.75;;;;;;;1.89;57.43;94950.19;5003130;28;20094;-76
2023/04/25 07:32:16;;;;;;;7.57;4.30;;;;;;;1.18;58.43;94954.66;5002938;28;20301;-76
2023/04/25 07:34:41;;;;;;;11.02;3.95;;;;;;;0.73;59.65;94962.03;5004230;28;20065;-76
2023/04/25 07:37:07;;;;;;;10.48;4.95;;;;;;;1.29;58.44;94962.41;5005326;28;20082;-76
2023/04/25 07:39:32;;;;;;;13.20;5.35;;;;;;;0.95;57.58;94962.75;5005403;28;20056;-76
2023/04/25 07:42:01;;;;;;;10.95;5.13;;;;;;;0.90;58.52;94960.56;5001126;28;20687;-76
2023/04/25 07:44:27;;;;;;;12.38;5.28;;;;;;;1.25;59.23;94958.41;5005112;28;20099;-76
2023/04/25 07:46:52;;;;;;;11.00;5.00;;;;;;;0.89;58.06;94966.75;5004407;28;20074;-77
2023/04/25 07:49:18;;;;;;;16.00;5.30;;;;;;;0.82;60.42;94955.97;5003139;28;20547;-77
2023/04/25 07:51:43;;;;;;;7.80;3.58;;;;;;;1.06;59.12;94965.28;5005438;28;20068;-77
2023/04/25 07:54:15;;;;;;;7.57;3.35;;;;;;;1.22;56.63;94969.16;5006053;28;20092;-77
2023/04/25 07:56:41;;;;;;;6.10;3.90;;;;;;;1.34;56.63;94968.09;5001198;28;20120;-77
2023/04/25 07:59:06;;;;;;;7.93;4.10;;;;;;;1.15;57.17;94968.03;4995732;28;20177;-77
2023/04/25 08:01:32;;;;;;;9.73;4.63;;;;;;;0.74;58.31;94976.78;5002907;28;20079;-77
2023/04/25 08:03:57;;;;;;;8.85;3.80;;;;;;;0.64;59.84;94984.59;5003365;28;20109;-77
2023/04/25 08:06:22;;;;;;;16.55;6.18;;;;;;;1.05;60.27;94991.63;5005282;28;20111;-77
2023/04/25 08:08:48;;;;;;;7.53;4.13;;;;;;;1.22;59.63;94987.53;5000490;28;20343;-75
2023/04/25 08:11:13;;;;;;;9.30;4.43;;;;;;;0.53;59.82;94998.63;5003650;28;20069;-77
2023/04/25 08:13:39;;;;;;;10.98;5.13;;;;;;;0.44;61.76;95008.09;4998923;28;20149;-77
2023/04/25 08:16:04;;;;;;;9.57;4.80;;;;;;;-0.57;63.78;95016.31;5001503;28;20403;-76
2023/04/25 08:18:30;;;;;;;5.82;3.08;;;;;;;-1.09;66.49;95029.88;5001947;28;20091;-76
2023/04/25 08:20:56;;;;;;;6.90;3.92;;;;;;;-1.42;66.66;95036.78;5000036;28;20095;-75
2023/04/25 08:23:21;;;;;;;11.25;5.75;;;;;;;-1.20;66.03;95022.88;5001996;28;20073;-75
2023/04/25 08:25:46;;;;;;;2.92;2.63;;;;;;;-0.81;64.92;95038.22;5001963;28;20097;-75
2023/04/25 08:28:12;;;;;;;7.00;3.17;;;;;;;-0.49;63.61;95040.06;5001395;28;20828;-75
2023/04/25 08:30:37;;;;;;;16.33;10.52;;;;;;;0.22;65.47;95032.63;4998848;28;20804;-75
2023/04/25 08:33:03;;;;;;;7.90;4.95;;;;;;;1.24;60.83;95028.41;5001264;28;20088;-76
2023/04/25 08:35:28;;;;;;;12.75;6.25;;;;;;;1.36;59.26;95039.59;5003630;28;20292;-76
2023/04/25 08:37:54;;;;;;;12.50;5.43;;;;;;;1.82;56.79;95033.06;5002945;28;20114;-75
2023/04/25 08:40:19;;;;;;;8.30;4.95;;;;;;;2.03;55.85;95046.06;5000695;28;20097;-77
2023/04/25 08:42:45;;;;;;;14.10;8.10;;;;;;;2.33;55.43;95041.63;4986281;28;20496;-77
2023/04/25 08:45:10;;;;;;;12.00;5.35;;;;;;;2.46;55.69;95043.97;5000501;28;20093;-77
2023/04/25 08:47:36;;;;;;;13.10;4.10;;;;;;;2.21;54.44;95054.06;5003626;28;20054;-77
2023/04/25 08:50:02;;;;;;;14.55;7.53;;;;;;;2.05;57.89;95059.91;4982330;28;20048;-77
2023/04/25 08:52:28;;;;;;;10.85;4.28;;;;;;;2.33;55.28;95054.75;5001710;28;20603;-77
2023/04/25 08:54:54;;;;;;;7.63;3.50;;;;;;;2.26;55.36;95058.91;5000956;28;20599;-77
2023/04/25 08:57:19;;;;;;;9.48;3.65;;;;;;;2.23;55.13;95067.06;5002213;28;20089;-77
2023/04/25 08:59:45;;;;;;;8.88;3.08;;;;;;;2.11;54.55;95064.59;4999055;28;20113;-77
2023/04/25 09:02:16;;;;;;;8.88;3.47;;;;;;;2.64;53.39;95059.00;4983600;28;20194;-77
2023/04/25 09:04:43;;;;;;;5.70;3.30;;;;;;;2.89;53.58;95064.59;4999409;28;20082;-77
2023/04/25 09:07:08;;;;;;;6.93;2.97;;;;;;;3.02;52.40;95065.13;5001146;28;20430;-77
2023/04/25 09:09:34;;;;;;;13.23;4.00;;;;;;;2.96;54.13;95070.94;5000250;28;20073;-77
2023/04/25 09:11:59;;;;;;;9.13;3.80;;;;;;;2.56;53.68;95079.91;5002063;28;20545;-77
2023/04/25 09:14:25;;;;;;;9.90;4.03;;;;;;;2.25;51.56;95088.78;4989853;28;20059;-77
2023/04/25 09:16:57;;;;;;;17.15;8.75;;;;;;;2.48;54.33;95088.47;4998364;28;20071;-77
2023/04/25 09:19:24;;;;;;;4.57;2.90;;;;;;;2.07;53.04;95086.84;4994424;28;20650;-77
2023/04/25 09:21:50;;;;;;;6.20;2.60;;;;;;;2.30;51.86;95093.59;4989395;28;20640;-77
2023/04/25 09:24:16;;;;;;;12.38;5.43;;;;;;;2.38;53.09;95096.38;4989801;28;20078;-77
2023/04/25 09:26:41;;;;;;;7.60;2.72;;;;;;;2.08;53.31;95099.00;4986898;28;20235;-75
2023/04/25 09:29:07;;;;;;;7.40;3.15;;;;;;;2.40;52.56;95102.31;4993577;28;20074;-80
2023/04/25 09:31:33;;;;;;;12.63;3.22;;;;;;;2.04;51.34;95107.31;4989849;28;20282;-80
2023/04/25 09:34:02;;;;;;;12.38;4.18;;;;;;;2.22;52.46;95102.19;4978716;28;20498;-80
2023/04/25 09:36:27;;;;;;;15.57;7.88;;;;;;;1.96;53.96;95113.22;5004525;28;20549;-80
2023/04/25 09:38:53;;;;;;;10.73;5.20;;;;;;;2.64;53.40;95112.41;4999192;28;20074;-80
2023/04/25 09:41:27;;;;;;;6.95;2.78;;;;;;;2.97;51.21;95117.31;5006535;28;20071;-80
2023/04/25 09:43:53;;;;;;;20.95;10.50;;;;;;;3.76;51.00;95106.50;5007156;28;20061;-80
2023/04/25 09:46:20;;;;;;;7.47;2.53;;;;;;;4.21;46.24;95108.41;4987643;28;20441;-81
2023/04/25 09:48:50;;;;;;;6.93;2.90;;;;;;;4.19;46.46;95119.91;5004914;28;20708;-81
2023/04/25 09:51:15;;;;;;;7.10;3.15;;;;;;;4.16;46.55;95114.13;5002584;28;20047;-81
2023/04/25 09:53:46;;;;;;;9.20;3.55;;;;;;;4.58;46.57;95107.41;4971342;28;20137;-82
2023/04/25 09:56:11;;;;;;;10.05;4.00;;;;;;;5.06;43.65;95107.09;5000385;28;20073;-82
2023/04/25 09:58:38;;;;;;;3.85;2.20;;;;;;;4.51;42.69;95101.91;4997983;28;20535;-82
2023/04/25 10:01:05;;;;;;;6.20;2.20;;;;;;;4.16;43.26;95114.13;5000573;28;20159;-81
2023/04/25 10:03:31;;;;;;;5.70;2.38;;;;;;;4.11;43.53;95121.66;4985351;28;20037;-82
2023/04/25 10:06:00;;;;;;;6.10;2.40;;;;;;;3.71;42.87;95121.88;5002854;28;20095;-82
2023/04/25 10:08:31;;;;;;;11.07;2.95;;;;;;;3.99;44.69;95121.03;5001651;28;20141;-82
2023/04/25 10:10:59;;;;;;;8.95;2.90;;;;;;;3.92;42.83;95123.44;4995839;28;20041;-71
2023/04/25 10:13:24;;;;;;;9.48;2.75;;;;;;;4.03;43.20;95132.94;4992645;28;20072;-73
2023/04/25 10:15:50;;;;;;;4.90;2.22;;;;;;;3.62;43.91;95133.31;4995003;28;20576;-74
2023/04/25 10:18:18;;;;;;;8.43;3.33;;;;;;;2.88;45.90;95137.41;4992492;28;20065;-73
2023/04/25 10:20:43;;;;;;;6.47;2.88;;;;;;;3.04;45.70;95135.97;4978000;28;20448;-80
2023/04/25 10:23:12;;;;;;;6.28;2.65;;;;;;;3.12;45.66;95137.88;4965463;28;20047;-81
2023/04/25 10:25:38;;;;;;;12.07;3.00;;;;;;;2.93;47.51;95138.78;4967748;28;20079;-81
2023/04/25 10:28:04;;;;;;;6.40;2.75;;;;;;;2.59;49.35;95140.88;4967872;28;20472;-80
2023/04/25 10:30:29;;;;;;;6.63;2.53;;;;;;;2.29;48.15;95142.72;4992609;28;20403;-81
2023/04/25 10:32:55;;;;;;;5.78;2.33;;;;;;;1.79;48.85;95147.06;4999208;28;20089;-80
2023/04/25 10:35:27;;;;;;;6.95;2.85;;;;;;;1.65;49.24;95150.88;4985697;28;20261;-80
2023/04/25 10:38:12;;;;;;;6.75;2.40;;;;;;;1.59;50.70;95157.50;4992855;28;20148;-80
2023/04/25 10:40:37;;;;;;;9.02;3.03;;;;;;;2.28;49.84;95154.16;4968506;28;20306;-81
2023/04/25 10:43:31;;;;;;;5.55;2.45;;;;;;;1.27;51.16;95158.44;4978503;28;20248;-81
2023/04/25 10:45:56;;;;;;;7.13;2.95;;;;;;;1.12;51.52;95163.19;4999241;28;20570;-81
2023/04/25 10:48:29;;;;;;;9.75;3.03;;;;;;;1.31;49.91;95162.47;5004243;28;20078;-81
2023/04/25 10:51:10;;;;;;;9.88;2.60;;;;;;;2.26;50.04;95159.59;5020456;28;20048;-81
2023/04/25 10:53:36;;;;;;;6.30;2.28;;;;;;;2.45;49.45;95152.66;5021665;28;20134;-81
2023/04/25 10:56:17;;;;;;;12.27;3.25;;;;;;;2.85;47.76;95157.88;4981398;28;20080;-81
2023/04/25 10:58:46;;;;;;;8.38;2.78;;;;;;;3.42;45.91;95167.56;4963659;28;20163;-80
2023/04/25 11:01:15;;;;;;;15.27;3.25;;;;;;;3.04;47.29;95175.44;4963646;28;20086;-81
2023/04/25 11:03:45;;;;;;;5.97;2.90;;;;;;;3.45;45.16;95167.31;5019458;28;20062;-81
2023/04/25 11:06:27;;;;;;;7.10;2.88;;;;;;;4.25;46.33;95170.38;4998065;28;20069;-79
2023/04/25 11:08:52;;;;;;;10.10;3.38;;;;;;;2.91;43.29;95173.94;4968511;28;20065;-82
2023/04/25 11:11:18;;;;;;;6.50;2.75;;;;;;;3.09;44.12;95175.84;5001785;28;20559;-82
2023/04/25 11:13:44;;;;;;;6.90;2.60;;;;;;;3.39;43.09;95165.22;4996414;28;20712;-81
2023/04/25 11:16:10;;;;;;;7.57;3.00;;;;;;;3.54;42.64;95169.06;4994635;28;20088;-82
2023/04/25 11:18:35;;;;;;;10.10;3.13;;;;;;;3.11;42.07;95168.66;4995408;28;20413;-81
2023/04/25 11:21:00;;;;;;;8.60;2.58;;;;;;;2.87;43.30;95174.34;4982725;28;20075;-81
2023/04/25 11:23:26;;;;;;;8.93;3.05;;;;;;;3.27;42.62;95169.84;4973148;28;20064;-81
2023/04/25 11:25:52;;;;;;;9.02;2.92;;;;;;;3.49;42.13;95181.00;5024777;28;20240;-81
2023/04/25 11:28:22;;;;;;;7.85;2.58;;;;;;;3.40;41.31;95169.50;5017676;28;20319;-82